Flight Track Log - Related Links

Times and Time Zones

All times are in EDT time to prevent confusion due to time zone crossing. See the N789EX flight status page for this flight to view local times or setup timezone preferences in your user account.

Time Position Orientation Groundspeed Altitude Reporting Facility
EDT Latitude Longitude Course Direction KTS MPH feet Rate Location/Type
Fri 01:10:05 PM 47.3419 -122.1690 209° Southwest 253 291 8,900  Level FlightAware ADS-B
Fri 01:10:09 PM 47.3373 -122.1730 213° Southwest 254 292 9,200 3,529 Climbing FlightAware ADS-B
Fri 01:10:39 PM 47.3078 -122.2030 215° Southwest 268 308 10,900 2,923 Climbing FlightAware ADS-B
Fri 01:10:48 PM 47.2987 -122.2130 218° Southwest 283 326 11,100 1,286 Climbing FlightAware ADS-B
Fri 01:10:53 PM 47.2934 -122.2190 224° Southwest 291 335 11,200 1,091 Climbing FlightAware ADS-B
Fri 01:10:59 PM 47.2887 -122.2280 233° Southwest 297 342 11,300 2,000 Climbing FlightAware ADS-B
Fri 01:11:02 PM 47.2861 -122.2340 241° Southwest 301 346 11,500 3,429 Climbing FlightAware ADS-B
Fri 01:11:06 PM 47.2840 -122.2410 249° West 303 349 11,700 3,000 Climbing FlightAware ADS-B
Fri 01:11:10 PM 47.2825 -122.2480 255° West 302 348 11,900 4,286 Climbing FlightAware ADS-B
Fri 01:11:13 PM 47.2818 -122.2550 261° West 302 348 12,200 5,143 Climbing FlightAware ADS-B
Fri 01:11:17 PM 47.2816 -122.2630 268° West 301 346 12,500 4,286 Climbing FlightAware ADS-B
Fri 01:11:20 PM 47.2818 -122.2700 274° West 299 344 12,700 4,364 Climbing FlightAware ADS-B
Fri 01:11:28 PM 47.2824 -122.2767 280° West 290 334 13,300 3,188 Climbing FlightAware ADS-B (CYVR)
Fri 01:11:52 PM 47.2887 -122.3220 282° West 291 335 14,400 2,327 Climbing FlightAware ADS-B
Fri 01:12:17 PM 47.2977 -122.3833 282° West 326 375 15,200 1,548 Climbing FlightAware ADS-B (CYVR)
Fri 01:12:23 PM 47.2984 -122.3880 282° West 331 381 15,200  Level FlightAware ADS-B
Fri 01:12:54 PM 47.3090 -122.4610 282° West 349 402 15,200  Level FlightAware ADS-B
Fri 01:12:58 PM 47.3101 -122.4676 282° West 351 404 15,200  Level FlightAware ADS-B (CYVR)
Fri 01:13:26 PM 47.3209 -122.5410 282° West 355 409 15,200  Level FlightAware ADS-B
Fri 01:13:46 PM 47.3280 -122.5888 283° West 355 409 15,200  Level FlightAware ADS-B (CYVR)
Fri 01:13:57 PM 47.3318 -122.6140 283° West 354 407 15,200  Level FlightAware ADS-B
Fri 01:14:11 PM 47.3368 -122.6480 281° West 352 405 15,200  Level FlightAware ADS-B
Fri 01:14:15 PM 47.3376 -122.6560 276° West 349 402 15,200  Level FlightAware ADS-B
Fri 01:14:18 PM 47.3378 -122.6640 269° West 345 397 15,200  Level FlightAware ADS-B (CYVR)
Fri 01:14:22 PM 47.3375 -122.6730 266° West 344 396 15,200  Level FlightAware ADS-B
Fri 01:14:28 PM 47.3372 -122.6762 259° West 342 394 15,200  Level FlightAware ADS-B (CYVR)
Fri 01:14:29 PM 47.3356 -122.6890 259° West 342 394 15,200  Level FlightAware ADS-B
Fri 01:14:44 PM 47.3288 -122.7240 252° West 339 390 15,200  Level FlightAware ADS-B
Fri 01:15:00 PM 47.3206 -122.7573 249° West 344 396 15,200  Level FlightAware ADS-B
Fri 01:15:12 PM 47.3139 -122.7830 248° West 346 398 15,200  Level FlightAware ADS-B
Fri 01:15:39 PM 47.2984 -122.8406 249° West 346 398 15,200  Level FlightAware ADS-B
Fri 01:15:44 PM 47.2953 -122.8520 249° West 346 398 15,200  Level FlightAware ADS-B
Fri 01:16:15 PM 47.2773 -122.9210 249° West 344 396 15,200  Level FlightAware ADS-B
Fri 01:16:29 PM 47.2692 -122.9514 249° West 345 397 15,200  Level FlightAware ADS-B (CYVR)
Fri 01:16:45 PM 47.2598 -122.9870 249° West 346 398 15,200  Level FlightAware ADS-B
Fri 01:17:01 PM 47.2649 -122.9680 249° West 347 399 15,200  Level FlightAware ADS-B (CYVR)
Fri 01:17:15 PM 47.2424 -123.0540 249° West 345 397 15,200  Level FlightAware ADS-B
Fri 01:17:46 PM 47.2247 -123.1210 249° West 342 394 15,200  Level FlightAware ADS-B
Fri 01:17:53 PM 47.2649 -122.9680 249° West 342 394 15,200  Level FlightAware ADS-B (CYVR)
Fri 01:18:16 PM 47.2074 -123.1870 249° West 343 395 15,200  Level FlightAware ADS-B
Fri 01:18:46 PM 47.1913 -123.2470 249° West 344 396 15,200  Level FlightAware ADS-B
Fri 01:19:00 PM 47.1824 -123.2810 249° West 346 398 15,200  Level FlightAware ADS-B (CYVR)
Fri 01:19:17 PM 47.1725 -123.3180 249° West 346 398 15,200  Level FlightAware ADS-B
Fri 01:19:30 PM 47.1651 -123.3456 248° West 345 397 15,200  Level FlightAware ADS-B (CYVR)
Fri 01:19:48 PM 47.1545 -123.3850 249° West 344 396 15,200  Level FlightAware ADS-B
Fri 01:20:00 PM 47.1527 -123.3922 249° West 340 391 15,200  Level FlightAware ADS-B (CYVR)
Fri 01:20:18 PM 47.1373 -123.4490 248° West 330 380 15,200  Level FlightAware ADS-B
Fri 01:20:42 PM 47.1240 -123.4990 249° West 323 372 15,200  Level FlightAware ADS-B
Fri 01:20:49 PM 47.1207 -123.5112 249° West 326 375 15,200  Level FlightAware ADS-B (CYVR)
Fri 01:21:13 PM 47.1069 -123.5630 248° West 325 374 15,200  Level FlightAware ADS-B
Fri 01:21:20 PM 47.1031 -123.5769 248° West 324 373 15,200  Level FlightAware ADS-B (CYVR)
Fri 01:21:43 PM 47.0903 -123.6240 249° West 321 369 15,200  Level FlightAware ADS-B
Fri 01:22:14 PM 47.0737 -123.6860 248° West 323 372 15,200  Level FlightAware ADS-B
Fri 01:22:44 PM 47.0568 -123.7480 248° West 326 375 15,200  Level FlightAware ADS-B
Fri 01:22:50 PM 47.0542 -123.7577 248° West 327 376 15,200  Level FlightAware ADS-B (CYVR)
Fri 01:23:11 PM 47.0415 -123.8050 248° West 328 377 15,200  Level FlightAware ADS-B
Fri 01:23:43 PM 47.0248 -123.8660 248° West 327 376 15,200  Level FlightAware ADS-B
Fri 01:24:15 PM 47.0072 -123.9300 248° West 331 381 15,200  Level FlightAware ADS-B
Fri 01:24:45 PM 46.9885 -123.9980 248° West 332 382 15,200  Level FlightAware ADS-B
Fri 01:25:16 PM 46.9710 -124.0620 248° West 332 382 15,200  Level FlightAware ADS-B
Fri 01:25:21 PM 46.9674 -124.0750 246° West 330 380 15,200  Level FlightAware ADS-B
Fri 01:25:26 PM 46.9641 -124.0840 240° Southwest 329 379 15,200  Level FlightAware ADS-B
Fri 01:25:30 PM 46.9607 -124.0910 234° Southwest 328 377 15,200  Level FlightAware ADS-B
Fri 01:25:34 PM 46.9567 -124.0980 229° Southwest 327 376 15,200  Level FlightAware ADS-B
Fri 01:25:40 PM 46.9504 -124.1070 223° Southwest 327 376 15,200  Level FlightAware ADS-B
Fri 01:25:46 PM 46.9432 -124.1150 215° Southwest 328 377 15,200  Level FlightAware ADS-B
Fri 01:26:05 PM 46.9189 -124.1380 218° Southwest 328 377 15,200  Level FlightAware ADS-B
Fri 01:26:23 PM 46.8992 -124.1650 223° Southwest 325 374 15,200  Level FlightAware ADS-B
Fri 01:26:33 PM 46.8886 -124.1800 227° Southwest 327 376 15,200  Level FlightAware ADS-B
Fri 01:26:38 PM 46.8833 -124.1890 230° Southwest 327 376 15,200  Level FlightAware ADS-B
Fri 01:27:09 PM 46.8549 -124.2420 232° Southwest 325 374 15,200  Level FlightAware ADS-B
Fri 01:27:39 PM 46.8273 -124.2940 233° Southwest 325 374 15,200  Level FlightAware ADS-B
Fri 01:28:09 PM 46.8001 -124.3460 233° Southwest 324 373 15,200  Level FlightAware ADS-B
Fri 01:28:40 PM 46.7718 -124.4000 233° Southwest 325 374 15,200  Level FlightAware ADS-B
Fri 01:29:10 PM 46.7441 -124.4530 233° Southwest 329 379 15,200  Level FlightAware ADS-B
Fri 01:29:41 PM 46.7153 -124.5080 233° Southwest 335 386 15,200  Level FlightAware ADS-B
Fri 01:30:14 PM 46.6845 -124.5670 233° Southwest 334 384 15,200  Level FlightAware ADS-B
Fri 01:30:59 PM 46.6419 -124.6480 232° Southwest 333 383 15,200  Level FlightAware ADS-B
Fri 01:31:31 PM 46.6120 -124.7040 233° Southwest 334 384 15,200  Level FlightAware ADS-B
Fri 01:33:02 PM 46.5335 -124.8520 233° Southwest 260 299 15,200  Level FlightAware ADS-B
Fri 01:33:36 PM 46.5106 -124.8950 232° Southwest 235 270 15,200 91 Level FlightAware ADS-B
Fri 01:34:08 PM 46.4907 -124.9330 232° Southwest 229 264 15,300 600 Climbing FlightAware ADS-B
Fri 01:34:46 PM 46.4649 -124.9810 233° Southwest 233 268 15,900 560 Climbing FlightAware ADS-B
Fri 01:35:23 PM 46.4413 -125.0260 232° Southwest 236 272 16,000 -343 Climbing FlightAware ADS-B
Fri 01:35:56 PM 46.4242 -125.0614 232° Southwest 232 267 15,500 -511 Descending Seattle Center
Fri 01:36:57 PM 46.3906 -125.1289 234° Southwest 212 244 15,200 -98 Descending Seattle Center
Fri 01:37:58 PM 46.3633 -125.1822 234° Southwest 184 212 15,300 344 Climbing Seattle Center
Fri 01:38:59 PM 46.3300 -125.2403 230° Southwest 185 213 15,900 443 Climbing Seattle Center
Fri 01:40:00 PM 46.2917 -125.3158 234° Southwest 193 222 16,200 246 Climbing Seattle Center
Fri 01:41:01 PM 46.2625 -125.3808 237° Southwest 196 226 16,400 -393 Climbing Seattle Center
Fri 01:42:02 PM 46.2217 -125.4222 215° Southwest 181 208 15,400 -885 Descending Seattle Center
Fri 01:43:03 PM 46.1783 -125.4644 214° Southwest 183 211 14,600 -1,426 Descending Seattle Center
Fri 01:44:04 PM 46.1439 -125.4969 213° Southwest 159 183 12,500 295 Descending Seattle Center
Fri 01:45:05 PM 46.0975 -125.5431 215° Southwest 187 215 15,200 787 Climbing Seattle Center
Fri 01:46:06 PM 46.0564 -125.5900 218° Southwest 191 220 14,100 -885 Descending Seattle Center
Fri 01:47:07 PM 46.0125 -125.6336 215° Southwest 191 220 13,400 -1,377 Descending Seattle Center
Fri 01:48:08 PM 45.9794 -125.6722 219° Southwest 165 190 11,300 393 Descending Seattle Center
Fri 01:49:09 PM 45.9339 -125.7219 217° Southwest 199 229 14,200 1,770 Climbing Seattle Center
Fri 01:50:10 PM 45.8911 -125.7686 217° Southwest 198 228 14,900 -738 Climbing Seattle Center
Fri 01:51:11 PM 45.8425 -125.8236 218° Southwest 187 215 12,700 -1,475 Descending Seattle Center
Fri 01:52:12 PM 45.7997 -125.8492 203° Southwest 171 197 11,900 -393 Descending Seattle Center
Fri 01:53:13 PM 45.7500 -125.8856 207° Southwest 202 232 11,900 1,574 Level Seattle Center
Fri 01:54:14 PM 45.7022 -125.9414 219° Southwest 221 254 15,100 1,426 Climbing Seattle Center
Fri 01:55:15 PM 45.6642 -125.9992 227° Southwest 211 243 14,800 -1,082 Descending Seattle Center
Fri 01:56:16 PM 45.6219 -126.0483 219° Southwest 201 231 12,900 -1,918 Descending Seattle Center
Fri 01:57:17 PM 45.5875 -126.0950 223° Southwest 176 203 10,900 246 Descending Seattle Center
Fri 01:58:18 PM 45.5308 -126.1483 213° Southwest 244 281 13,400 885 Climbing Seattle Center
Fri 01:59:19 PM 45.5197 -126.0686 101° East 260 299 12,700 -98 Descending Seattle Center
Fri 02:00:21 PM 45.5933 -126.0419 14° North 275 316 13,200 836 Climbing Seattle Center
Fri 02:01:21 PM 45.6631 -125.9964 25° Northeast 276 318 14,400 248 Climbing Seattle Center
Fri 02:02:22 PM 45.7239 -125.9394 33° Northeast 278 320 13,700 590 Descending Seattle Center
Fri 02:03:23 PM 45.8142 -125.8542 33° Northeast 323 372 15,600 443 Climbing Seattle Center
Fri 02:04:24 PM 45.8839 -125.7889 33° Northeast 307 353 14,600 -1,180 Descending Seattle Center
Fri 02:05:25 PM 45.9431 -125.7353 32° Northeast 261 300 13,200 -293 Descending Seattle Center
Fri 02:06:27 PM 46.0117 -125.6683 34° Northeast 285 328 14,000 537 Climbing Seattle Center
Fri 02:07:28 PM 46.0764 -125.6000 36° Northeast 288 331 14,300 344 Climbing Seattle Center
Fri 02:08:29 PM 46.1214 -125.5208 51° Northeast 273 314 14,700 295 Climbing Seattle Center
Fri 02:09:30 PM 46.1519 -125.4297 64° Northeast 254 292 14,900 -393 Climbing Seattle Center
Fri 02:10:31 PM 46.1839 -125.3414 62° Northeast 252 290 13,900 -934 Descending Seattle Center
Fri 02:11:32 PM 46.2167 -125.2592 60° Northeast 239 275 13,000 -1,377 Descending Seattle Center
Fri 02:12:33 PM 46.2483 -125.1911 56° Northeast 209 241 11,100 -1,230 Descending Seattle Center
Fri 02:13:34 PM 46.2919 -125.1242 47° Northeast 227 261 10,500  Descending Seattle Center
Fri 02:14:35 PM 46.3383 -125.0581 45° Northeast 230 265 11,100 1,377 Climbing Seattle Center
Fri 02:15:36 PM 46.3589 -124.9706 71° East 233 268 13,300 1,820 Climbing Seattle Center
Fri 02:16:37 PM 46.3256 -125.0133 222° Southwest 172 198 14,800 885 Climbing Seattle Center
Fri 02:17:38 PM 46.2936 -125.0583 224° Southwest 165 190 15,100 -492 Climbing Seattle Center
Fri 02:18:39 PM 46.2622 -125.1008 223° Southwest 156 180 13,800 -1,574 Descending Seattle Center
Fri 02:19:40 PM 46.2411 -125.1372 230° Southwest 120 138 11,900 -934 Descending Seattle Center
Fri 02:20:41 PM 46.2111 -125.1836 227° Southwest 151 174 11,900 -492 Level Seattle Center
Fri 02:21:42 PM 46.1800 -125.2261 223° Southwest 151 174 10,900 -639 Descending Seattle Center
Fri 02:22:43 PM 46.1531 -125.2744 231° Southwest 154 177 10,600 98 Descending Seattle Center
Fri 02:23:44 PM 46.1361 -125.3369 249° West 162 186 11,100 639 Climbing Seattle Center
Fri 02:24:45 PM 46.1253 -125.3969 255° West 163 188 11,900 787 Climbing Seattle Center
Fri 02:25:46 PM 46.1164 -125.4581 258° West 162 186 12,700 244 Climbing Seattle Center
Fri 02:26:48 PM 46.1047 -125.5153 254° West 131 151 12,400 -146 Descending Seattle Center
Fri 02:27:49 PM 46.0806 -125.5725 239° Southwest 153 176 12,400 1,082 Level Seattle Center
Fri 02:28:50 PM 46.0669 -125.6392 254° West 175 201 14,600 1,426 Climbing Seattle Center
Fri 02:29:51 PM 46.0508 -125.7019 250° West 172 198 15,300 -393 Climbing Seattle Center
Fri 02:30:52 PM 46.0300 -125.7517 239° Southwest 154 177 13,800 -1,820 Descending Seattle Center
Fri 02:31:53 PM 46.0111 -125.7936 237° Southwest 134 154 11,600 -689 Descending Seattle Center
Fri 02:32:54 PM 45.9750 -125.8278 213° Southwest 150 173 12,400 1,082 Climbing Seattle Center
Fri 02:33:55 PM 45.9361 -125.8575 208° Southwest 158 182 13,800 787 Climbing Seattle Center
Fri 02:34:56 PM 45.9031 -125.8939 217° Southwest 154 177 14,000 -393 Climbing Seattle Center
Fri 02:35:57 PM 45.8742 -125.9267 218° Southwest 139 160 13,000 -393 Descending Seattle Center
Fri 02:36:58 PM 45.8414 -125.9603 216° Southwest 140 161 13,200 537 Climbing Seattle Center
Fri 02:38:00 PM 45.7978 -125.9964 210° Southwest 147 169 14,100 683 Climbing Seattle Center
Fri 02:39:01 PM 45.7656 -126.0200 207° Southwest 137 158 14,600 393 Climbing Seattle Center
Fri 02:40:02 PM 45.7275 -126.0408 201° Southwest 139 160 14,900 98 Climbing Seattle Center
Fri 02:41:03 PM 45.6925 -126.0644 205° Southwest 142 163 14,800 -689 Descending Seattle Center
Fri 02:42:04 PM 45.6619 -126.0964 216° Southwest 138 159 13,500 -1,525 Descending Seattle Center
Fri 02:43:05 PM 45.6400 -126.1253 223° Southwest 116 133 11,700 295 Descending Seattle Center
Fri 02:44:06 PM 45.6136 -126.1700 230° Southwest 137 158 14,100 1,525 Climbing Seattle Center
Fri 02:45:07 PM 45.5869 -126.2150 230° Southwest 148 170 14,800 -49 Climbing Seattle Center
Fri 02:46:08 PM 45.5644 -126.2481 226° Southwest 127 146 14,000 -1,082 Descending Seattle Center
Fri 02:47:09 PM 45.5372 -126.2836 222° Southwest 130 150 12,600 -639 Descending Seattle Center
Fri 02:48:10 PM 45.5836 -126.3161 334° Northwest 196 226 12,700 439 Climbing Seattle Center
Fri 02:49:12 PM 45.6364 -126.3242 354° North 196 226 13,500 878 Climbing Seattle Center
Fri 02:50:13 PM 45.6972 -126.3350 353° North 218 251 14,500 1,082 Climbing Seattle Center
Fri 02:51:14 PM 45.7611 -126.3478 352° North 233 268 15,700 197 Climbing Seattle Center
Fri 02:52:15 PM 45.8200 -126.3583 353° North 221 254 14,900 -984 Descending Seattle Center
Fri 02:53:16 PM 45.8714 -126.3681 352° North 195 224 13,700 344 Descending Seattle Center
Fri 02:54:17 PM 45.9250 -126.3258 29° Northeast 247 284 15,600 492 Climbing Seattle Center
Fri 02:55:18 PM 45.9533 -126.2447 63° Northeast 235 270 14,700 -1,131 Descending Seattle Center
Fri 02:56:19 PM 45.9769 -126.1742 64° Northeast 208 239 13,300 98 Descending Seattle Center
Fri 02:57:20 PM 46.0003 -126.0889 68° East 221 254 14,900 293 Climbing Seattle Center
Fri 02:58:22 PM 45.9692 -126.0453 136° Southeast 166 191 13,900 -927 Descending Seattle Center
Fri 02:59:23 PM 45.9367 -126.0161 148° Southeast 145 167 13,000 426 Descending Seattle Center
Fri 03:01:25 PM 45.8556 -125.9475 149° Southeast 157 181 15,200 984 Climbing Seattle Center
Fri 03:02:26 PM 45.8150 -125.9147 151° Southeast 164 189 16,000 393 Climbing Seattle Center
Fri 03:03:27 PM 45.7717 -125.9025 169° South 162 186 16,000  Level Seattle Center
Fri 03:04:28 PM 45.7314 -125.9178 195° South 155 178 16,000  Level Seattle Center
Fri 03:05:30 PM 45.6911 -125.9331 195° South 154 177 16,000  Level Seattle Center
Fri 03:06:31 PM 45.6514 -125.9500 197° South 154 177 16,000  Level Seattle Center
Fri 03:07:32 PM 45.6272 -125.9956 233° Southwest 150 173 16,000  Level Seattle Center
Fri 03:08:33 PM 45.6022 -126.0400 231° Southwest 142 163 16,000  Level Seattle Center
Fri 03:09:34 PM 45.5781 -126.0878 234° Southwest 146 168 16,000  Level Seattle Center
Fri 03:10:35 PM 45.5469 -126.1400 230° Southwest 146 168 16,000  Level Seattle Center
Fri 03:11:36 PM 45.5833 -126.1725 328° Northwest 201 231 16,000 -344 Level Seattle Center
Fri 03:12:37 PM 45.6461 -126.1622 North 226 260 15,300 -738 Descending Seattle Center
Fri 03:13:38 PM 45.7031 -126.1528 North 213 245 14,500 -1,082 Descending Seattle Center
Fri 03:14:39 PM 45.7567 -126.1439 North 199 229 13,100 197 Descending Seattle Center
Fri 03:15:40 PM 45.8142 -126.1344 North 203 234 14,900 836 Climbing Seattle Center
Fri 03:16:41 PM 45.8744 -126.1236 North 214 246 14,800 -541 Descending Seattle Center
Fri 03:17:42 PM 45.9289 -126.0950 20° North 211 243 13,800 -1,426 Descending Seattle Center
Fri 03:18:43 PM 45.9822 -126.0664 20° North 218 251 11,900 -738 Descending Seattle Center
Fri 03:19:44 PM 46.0156 -125.9950 56° Northeast 217 250 12,300 197 Climbing Seattle Center
Fri 03:20:45 PM 46.0464 -125.9308 55° Northeast 205 236 12,300 738 Level Seattle Center
Fri 03:21:46 PM 46.0794 -125.8614 56° Northeast 204 235 13,800 1,574 Climbing Seattle Center
Fri 03:22:47 PM 46.1067 -125.7642 68° East 215 247 15,500 -197 Climbing Seattle Center
Fri 03:23:48 PM 46.1286 -125.6839 68° East 215 247 13,400 -2,262 Descending Seattle Center
Fri 03:24:49 PM 46.1481 -125.6117 69° East 201 231 10,900 -885 Descending Seattle Center
Fri 03:25:50 PM 46.1519 -125.5392 86° East 200 230 11,600 934 Climbing Seattle Center
Fri 03:26:51 PM 46.1208 -125.5581 203° Southwest 132 152 12,800 98 Climbing Seattle Center
Fri 03:27:52 PM 46.0942 -125.5847 215° Southwest 119 137 11,800 -639 Descending Seattle Center
Fri 03:28:53 PM 46.0708 -125.6078 214° Southwest 108 124 11,500 197 Descending Seattle Center
Fri 03:29:54 PM 46.0436 -125.6303 210° Southwest 110 127 12,200 639 Climbing Seattle Center
Fri 03:30:55 PM 46.0175 -125.6478 205° Southwest 107 123 12,800 1,122 Climbing Seattle Center
Fri 03:31:57 PM 45.9931 -125.6747 217° Southwest 107 123 14,500 829 Climbing Seattle Center
Fri 03:32:58 PM 45.9719 -125.7111 230° Southwest 115 132 14,500 -738 Level Seattle Center
Fri 03:33:59 PM 45.9506 -125.7458 228° Southwest 115 132 13,000 -1,426 Descending Seattle Center
Fri 03:35:00 PM 45.9272 -125.7800 226° Southwest 105 121 11,600 98 Descending Seattle Center
Fri 03:36:01 PM 45.8983 -125.8175 222° Southwest 131 151 13,200 2,164 Climbing Seattle Center
Fri 03:37:02 PM 45.8700 -125.8619 228° Southwest 152 175 16,000 344 Climbing Seattle Center
Fri 03:38:03 PM 45.8556 -125.8944 237° Southwest 111 128 13,900 -1,721 Descending Seattle Center
Fri 03:39:04 PM 45.8375 -125.9269 231° Southwest 108 124 12,500 -393 Descending Seattle Center
Fri 03:40:05 PM 45.8208 -125.9728 242° Southwest 122 140 13,100 541 Climbing Seattle Center
Fri 03:41:06 PM 45.8056 -126.0156 243° Southwest 127 146 13,600 246 Climbing Seattle Center
Fri 03:42:07 PM 45.7872 -126.0544 236° Southwest 121 139 13,600 197 Level Seattle Center
Fri 03:43:08 PM 45.7708 -126.0881 235° Southwest 111 128 14,000 443 Climbing Seattle Center
Fri 03:44:09 PM 45.7500 -126.1242 230° Southwest 116 133 14,500 1,180 Climbing Seattle Center
Fri 03:45:10 PM 45.7214 -126.1583 220° Southwest 134 154 16,400 -98 Climbing Seattle Center
Fri 03:46:11 PM 45.6836 -126.1642 186° South 120 138 14,300 -2,164 Descending Seattle Center
Fri 03:47:12 PM 45.6508 -126.1611 176° South 120 138 12,000 -443 Descending Seattle Center
Fri 03:48:13 PM 45.6119 -126.1503 169° South 137 158 13,400 1,574 Climbing Seattle Center
Fri 03:49:14 PM 45.6222 -126.0769 79° East 220 253 15,200 787 Climbing Seattle Center
Fri 03:50:15 PM 45.6817 -126.0564 14° North 224 258 15,000 -98 Descending Seattle Center
Fri 03:51:16 PM 45.7414 -126.0425 North 220 253 15,000  Level Seattle Center
Fri 03:52:17 PM 45.7992 -126.0231 13° North 218 251 15,000 -246 Level Seattle Center
Fri 03:53:18 PM 45.8525 -126.0008 16° North 205 236 14,500 -639 Descending Seattle Center
Fri 03:54:19 PM 45.9069 -125.9839 12° North 203 234 13,700 -295 Descending Seattle Center
Fri 03:55:20 PM 45.9611 -125.9658 13° North 203 234 13,900 -50 Climbing Seattle Center
Fri 03:56:20 PM 46.0142 -125.9442 16° North 201 231 13,600 -50 Descending Seattle Center
Fri 03:57:21 PM 46.0678 -125.9158 20° North 203 234 13,800 197 Climbing Seattle Center
Fri 03:58:22 PM 46.1186 -125.8489 42° Northeast 241 277 14,000 98 Climbing Seattle Center
Fri 03:59:23 PM 46.1853 -125.7631 42° Northeast 263 303 14,000 49 Level Seattle Center
Fri 04:00:24 PM 46.2411 -125.6911 42° Northeast 264 304 14,100 98 Climbing Seattle Center
Fri 04:01:25 PM 46.2628 -125.5942 72° East 257 296 14,200  Climbing Seattle Center
Fri 04:02:26 PM 46.2828 -125.4994 73° East 251 289 14,100 -98 Descending Seattle Center
Fri 04:03:27 PM 46.2897 -125.4267 82° East 191 220 14,000 -49 Descending Seattle Center
Fri 04:04:28 PM 46.2606 -125.4031 151° Southeast 129 148 14,000  Level Seattle Center
Fri 04:05:29 PM 46.2300 -125.3850 158° South 118 136 14,000 -49 Level Seattle Center
Fri 04:06:30 PM 46.1986 -125.3667 158° South 120 138 13,900 -98 Descending Seattle Center
Fri 04:07:31 PM 46.1681 -125.3533 163° South 119 137 13,800 -50 Descending Seattle Center
Fri 04:08:31 PM 46.1369 -125.3431 167° South 116 133 13,800 50 Level Seattle Center
Fri 04:09:32 PM 46.1206 -125.3903 243° Southwest 171 197 13,900 148 Climbing Seattle Center
Fri 04:10:33 PM 46.1225 -125.4844 272° West 228 262 14,100 -49 Climbing Seattle Center
Fri 04:11:34 PM 46.1250 -125.5797 272° West 234 269 13,800 -197 Descending Seattle Center
Fri 04:12:35 PM 46.1022 -125.6750 251° West 235 270 13,700 -98 Descending Seattle Center
Fri 04:13:36 PM 46.0603 -125.7331 224° Southwest 215 247 13,600 -148 Descending Seattle Center
Fri 04:14:37 PM 46.0181 -125.7906 223° Southwest 213 245 13,400 -246 Descending Seattle Center
Fri 04:15:38 PM 45.9733 -125.8458 221° Southwest 213 245 13,100 -246 Descending Seattle Center
Fri 04:16:39 PM 45.9319 -125.9022 223° Southwest 210 242 12,900 -246 Descending Seattle Center
Fri 04:17:40 PM 45.8908 -125.9611 225° Southwest 210 242 12,600 246 Descending Seattle Center
Fri 04:18:41 PM 45.8500 -125.8986 133° Southeast 277 319 13,400 1,180 Climbing Seattle Center
Fri 04:19:42 PM 45.8925 -125.7731 64° Northeast 347 399 15,000 787 Climbing Seattle Center
Fri 04:20:43 PM 45.9733 -125.6481 47° Northeast 411 473 15,000  Level Seattle Center
Fri 04:21:44 PM 46.0536 -125.5286 46° Northeast 418 481 15,000  Level Seattle Center
Fri 04:22:45 PM 46.1336 -125.4094 46° Northeast 416 479 15,000  Level Seattle Center
Fri 04:23:46 PM 46.2053 -125.2767 52° Northeast 417 480 15,000 34 Level Seattle Center
Fri 04:28:35 PM 46.4582 -124.5180 65° Northeast 418 481 15,200 37 Climbing FlightAware ADS-B
Fri 04:29:11 PM 46.4865 -124.4320 65° Northeast 418 481 15,200  Level FlightAware ADS-B
Fri 04:29:50 PM 46.5180 -124.3360 65° Northeast 418 481 15,200  Level FlightAware ADS-B
Fri 04:30:21 PM 46.5455 -124.2510 65° Northeast 420 483 15,200  Level FlightAware ADS-B
Fri 04:30:51 PM 46.5704 -124.1740 65° Northeast 420 483 15,200  Level FlightAware ADS-B
Fri 04:31:22 PM 46.5956 -124.0960 65° Northeast 420 483 15,200  Level FlightAware ADS-B
Fri 04:31:54 PM 46.6201 -124.0200 65° Northeast 419 482 15,200  Level FlightAware ADS-B
Fri 04:32:28 PM 46.6478 -123.9330 65° Northeast 420 483 15,200  Level FlightAware ADS-B
Fri 04:33:00 PM 46.6716 -123.8590 65° Northeast 420 483 15,200  Level FlightAware ADS-B
Fri 04:33:32 PM 46.6992 -123.7720 65° Northeast 420 483 15,200  Level FlightAware ADS-B
Fri 04:34:02 PM 46.7233 -123.6970 65° Northeast 418 481 15,200  Level FlightAware ADS-B
Fri 04:34:34 PM 46.7499 -123.6130 65° Northeast 416 479 15,200  Level FlightAware ADS-B
Fri 04:35:04 PM 46.7766 -123.5280 65° Northeast 417 480 15,200  Level FlightAware ADS-B
Fri 04:35:35 PM 46.8011 -123.4500 65° Northeast 416 479 15,200  Level FlightAware ADS-B
Fri 04:36:05 PM 46.8249 -123.3750 65° Northeast 391 450 15,200  Level FlightAware ADS-B
Fri 04:36:36 PM 46.8471 -123.3030 66° East 380 437 15,200  Level FlightAware ADS-B
Fri 04:37:07 PM 46.8701 -123.2300 66° East 383 441 15,200  Level FlightAware ADS-B
Fri 04:37:37 PM 46.8923 -123.1580 65° Northeast 387 445 15,200  Level FlightAware ADS-B
Fri 04:38:07 PM 46.9149 -123.0860 66° East 400 460 15,200  Level FlightAware ADS-B
Fri 04:38:37 PM 46.9373 -123.0130 66° East 388 447 15,200  Level FlightAware ADS-B
Fri 04:39:08 PM 46.9603 -122.9390 65° Northeast 391 450 15,200  Level FlightAware ADS-B
Fri 04:39:14 PM 46.9651 -122.9240 59° Northeast 391 450 15,200  Level FlightAware ADS-B
Fri 04:39:21 PM 46.9729 -122.9080 55° Northeast 392 451 15,200  Level FlightAware ADS-B
Fri 04:39:30 PM 46.9827 -122.8910 49° Northeast 392 451 15,200  Level FlightAware ADS-B
Fri 04:39:31 PM 46.9834 -122.8895 49° Northeast 392 451 15,200  Level FlightAware ADS-B (CYVR)
Fri 04:39:40 PM 46.9948 -122.8720 44° Northeast 392 451 15,200 -154 Level FlightAware ADS-B
Fri 04:40:10 PM 47.0362 -122.8200 41° Northeast 387 445 15,100 -900 Descending FlightAware ADS-B
Fri 04:40:40 PM 47.0762 -122.7690 41° Northeast 379 436 14,300 -1,600 Descending FlightAware ADS-B
Fri 04:41:10 PM 47.1157 -122.7180 41° Northeast 371 427 13,500 -1,377 Descending FlightAware ADS-B
Fri 04:41:41 PM 47.1541 -122.6690 41° Northeast 360 414 12,900 -1,375 Descending FlightAware ADS-B
Fri 04:41:58 PM 47.1754 -122.6420 40° Northeast 353 406 12,400 -1,909 Descending FlightAware ADS-B
Fri 04:42:03 PM 47.1828 -122.6330 37° Northeast 352 405 12,200 -2,400 Descending FlightAware ADS-B
Fri 04:42:08 PM 47.1887 -122.6270 33° Northeast 351 404 12,000 -2,250 Descending FlightAware ADS-B
Fri 04:42:11 PM 47.1937 -122.6240 27° Northeast 350 403 11,900 -2,250 Descending FlightAware ADS-B
Fri 04:42:16 PM 47.2011 -122.6190 20° North 346 398 11,700 -2,250 Descending FlightAware ADS-B
Fri 04:42:19 PM 47.2059 -122.6170 16° North 342 394 11,600 -1,000 Descending FlightAware ADS-B
Fri 04:42:22 PM 47.2105 -122.6150 12° North 338 389 11,600 -1,333 Level FlightAware ADS-B
Fri 04:42:28 PM 47.2185 -122.6140 North 328 377 11,400 -2,000 Descending FlightAware ADS-B
Fri 04:42:34 PM 47.2271 -122.6140 359° North 319 367 11,200 -2,211 Descending FlightAware ADS-B
Fri 04:43:06 PM 47.2725 -122.6190 355° North 300 345 10,000 -2,426 Descending FlightAware ADS-B
Fri 04:43:21 PM 47.2935 -122.6220 355° North 294 338 9,300 -2,710 Descending FlightAware ADS-B
Fri 04:43:37 PM 47.3147 -122.6240 355° North 288 331 8,600 -2,889 Descending FlightAware ADS-B
Fri 04:43:48 PM 47.3299 -122.6260 355° North 282 325 8,000 -2,667 Descending FlightAware ADS-B
Fri 04:44:04 PM 47.3493 -122.6290 355° North 267 307 7,400 -2,308 Descending FlightAware ADS-B
Fri 04:44:14 PM 47.3616 -122.6310 355° North 260 299 7,000 -2,400 Descending FlightAware ADS-B
Fri 04:44:29 PM 47.3801 -122.6330 355° North 252 290 6,400 -1,500 Descending FlightAware ADS-B
Fri 04:44:42 PM 47.3943 -122.6340 356° North 235 270 6,300 -480 Descending FlightAware ADS-B
Fri 04:44:54 PM 47.4063 -122.6360 356° North 225 259 6,200 -222 Descending FlightAware ADS-B
Fri 04:45:09 PM 47.4216 -122.6370 357° North 217 250 6,200  Level FlightAware ADS-B
Fri 04:45:24 PM 47.4371 -122.6390 357° North 215 247 6,200  Level FlightAware ADS-B
Fri 04:45:40 PM 47.4524 -122.6400 357° North 215 247 6,200  Level FlightAware ADS-B
Fri 04:45:55 PM 47.4673 -122.6410 357° North 214 246 6,200  Level FlightAware ADS-B
Fri 04:46:07 PM 47.4796 -122.6420 357° North 215 247 6,200  Level FlightAware ADS-B
Fri 04:46:23 PM 47.4948 -122.6440 357° North 216 249 6,200  Level FlightAware ADS-B
Fri 04:46:34 PM 47.5058 -122.6440 357° North 218 251 6,200  Level FlightAware ADS-B
Fri 04:46:37 PM 47.5099 -122.6450 359° North 220 253 6,200  Level FlightAware ADS-B
Fri 04:46:40 PM 47.5129 -122.6450 North 221 254 6,200 -857 Level FlightAware ADS-B
Fri 04:46:44 PM 47.5160 -122.6440 North 223 257 6,100 -1,714 Descending FlightAware ADS-B
Fri 04:46:47 PM 47.5201 -122.6430 12° North 226 260 6,000 -2,000 Descending FlightAware ADS-B
Fri 04:46:50 PM 47.5231 -122.6420 16° North 227 261 5,900 -1,500 Descending FlightAware ADS-B
Fri 04:46:55 PM 47.5282 -122.6390 19° North 230 265 5,800 -2,000 Descending FlightAware ADS-B
Fri 04:47:11 PM 47.5434 -122.6310 21° North 233 268 5,200 -2,276 Descending FlightAware ADS-B
Fri 04:47:24 PM 47.5570 -122.6230 21° North 231 266 4,700 -2,143 Descending FlightAware ADS-B
Fri 04:47:39 PM 47.5719 -122.6140 21° North 228 262 4,200 -2,087 Descending FlightAware ADS-B
Fri 04:47:47 PM 47.5797 -122.6100 20° North 227 261 3,900 -2,400 Descending FlightAware ADS-B
Fri 04:47:59 PM 47.5919 -122.6040 19° North 230 265 3,400 -2,182 Descending FlightAware ADS-B
Fri 04:48:20 PM 47.6127 -122.5940 18° North 233 268 2,700 -1,667 Descending FlightAware ADS-B
Fri 04:48:35 PM 47.6287 -122.5870 16° North 242 278 2,400 -600 Descending FlightAware ADS-B
Fri 04:48:50 PM 47.6450 -122.5800 16° North 231 266 2,400  Level FlightAware ADS-B
Fri 04:49:14 PM 47.6690 -122.5680 16° North 228 262 2,400  Level FlightAware ADS-B
Fri 04:49:22 PM 47.6756 -122.5610 30° Northeast 228 262 2,400  Level FlightAware ADS-B
Fri 04:49:34 PM 47.6841 -122.5470 42° Northeast 225 259 2,400  Level FlightAware ADS-B
Fri 04:49:46 PM 47.6917 -122.5340 49° Northeast 223 257 2,400  Level FlightAware ADS-B
Fri 04:50:01 PM 47.7018 -122.5160 50° Northeast 219 252 2,400  Level FlightAware ADS-B
Fri 04:50:23 PM 47.7156 -122.4910 52° Northeast 213 245 2,400  Level FlightAware ADS-B
Fri 04:50:29 PM 47.7189 -122.4840 58° Northeast 210 242 2,400  Level FlightAware ADS-B
Fri 04:50:58 PM 47.7148 -122.4510 78° East 201 231 2,400  Level FlightAware ADS-B
Fri 04:51:50 PM 47.6794 -122.4290 156° South 159 183 2,400  Level FlightAware ADS-B
Fri 04:52:12 PM 47.6652 -122.4170 151° Southeast 159 183 2,400  Level FlightAware ADS-B
Fri 04:52:36 PM 47.6498 -122.4040 150° Southeast 158 182 2,400  Level FlightAware ADS-B
Fri 04:52:50 PM 47.6410 -122.3960 150° Southeast 158 182 2,400 -200 Level FlightAware ADS-B
Fri 04:53:06 PM 47.6314 -122.3880 150° Southeast 159 183 2,300 -400 Descending FlightAware ADS-B
Fri 04:53:20 PM 47.6225 -122.3810 151° Southeast 142 163 2,200 -732 Descending FlightAware ADS-B
Fri 04:53:47 PM 47.6082 -122.3690 150° Southeast 132 152 1,800 -792 Descending FlightAware ADS-B
Fri 04:54:13 PM 47.5952 -122.3580 150° Southeast 124 143 1,500 -857 Descending FlightAware ADS-B
Fri 04:55:18 PM 47.5628 -122.3311 150° Southeast 126 145 500 -845 Descending Seattle Center
Fri 04:55:24 PM 47.5603 -122.3300 163° South 127 146 500  Level Seattle Center

Login

Don't have an account? Register now (free) for customized features, flight alerts, and more!